createdAt,value
2023-01-11T00:00:16.689Z,2.99
2023-01-11T00:03:37.823Z,2.94
2023-01-11T00:06:58.296Z,2.93
2023-01-11T00:10:19.940Z,2.87
2023-01-11T00:13:43.086Z,2.79
2023-01-11T00:17:03.504Z,2.70
2023-01-11T00:20:23.841Z,2.70
2023-01-11T00:23:44.408Z,2.70
2023-01-11T00:27:04.740Z,2.73
2023-01-11T00:30:28.606Z,2.62
2023-01-11T00:33:49.358Z,2.72
2023-01-11T00:37:10.889Z,2.72
2023-01-11T00:40:31.216Z,2.69
2023-01-11T00:44:07.038Z,2.68
2023-01-11T00:47:45.869Z,2.53
2023-01-11T00:51:06.330Z,2.49
2023-01-11T00:54:27.211Z,2.44
2023-01-11T00:57:47.818Z,2.56
2023-01-11T01:01:10.601Z,2.65
2023-01-11T01:04:34.758Z,2.71
2023-01-11T01:07:55.194Z,2.74
2023-01-11T01:11:15.549Z,2.79
2023-01-11T01:14:34.749Z,2.86
2023-01-11T01:17:58.055Z,2.93
2023-01-11T01:21:21.160Z,2.98
2023-01-11T01:24:41.647Z,2.98
2023-01-11T01:28:02.164Z,2.98
2023-01-11T01:31:22.780Z,2.96
2023-01-11T01:34:43.245Z,2.96
2023-01-11T01:38:06.339Z,3.01
2023-01-11T01:41:26.754Z,3.01
2023-01-11T01:45:20.383Z,2.93
2023-01-11T01:48:46.029Z,2.90
2023-01-11T01:52:07.424Z,2.92
2023-01-11T01:55:39.036Z,2.89
2023-01-11T01:59:07.931Z,2.89
2023-01-11T02:02:29.920Z,2.92
2023-01-11T02:05:54.700Z,2.91
2023-01-11T02:09:29.834Z,2.86
2023-01-11T02:13:01.470Z,2.77
2023-01-11T02:16:24.600Z,2.78
2023-01-11T02:19:55.373Z,2.77
2023-01-11T02:23:50.158Z,2.81
2023-01-11T02:27:32.095Z,2.91
2023-01-11T02:30:56.988Z,2.97
2023-01-11T02:34:30.448Z,2.96
2023-01-11T02:37:51.135Z,2.92
2023-01-11T02:41:11.853Z,2.92
2023-01-11T02:44:43.772Z,2.91
2023-01-11T02:48:02.133Z,2.86
2023-01-11T02:51:15.962Z,2.84
2023-01-11T02:54:27.468Z,2.88
2023-01-11T02:57:39.398Z,2.94
2023-01-11T03:00:47.676Z,3.00
2023-01-11T03:03:57.842Z,3.06
2023-01-11T03:07:30.597Z,3.11
2023-01-11T03:11:00.045Z,3.18
2023-01-11T03:14:20.798Z,3.24
2023-01-11T03:17:48.868Z,3.28
2023-01-11T03:21:20.021Z,3.28
2023-01-11T03:24:41.791Z,3.27
2023-01-11T03:28:05.163Z,3.22
2023-01-11T03:31:24.205Z,3.17
2023-01-11T03:34:43.433Z,3.20
2023-01-11T03:38:03.560Z,3.23
2023-01-11T03:41:19.561Z,3.23
2023-01-11T03:44:29.339Z,3.23
2023-01-11T03:47:39.047Z,3.24
2023-01-11T03:50:46.916Z,3.25
2023-01-11T03:54:02.491Z,3.25
2023-01-11T03:57:16.532Z,3.22
2023-01-11T04:00:23.734Z,3.19
2023-01-11T04:03:29.393Z,3.22
2023-01-11T04:06:40.723Z,3.27
2023-01-11T04:09:49.514Z,3.31
2023-01-11T04:12:55.713Z,3.36
2023-01-11T04:16:01.079Z,3.38
2023-01-11T04:19:07.322Z,3.40
2023-01-11T04:22:12.716Z,3.45
2023-01-11T04:25:21.851Z,3.48
2023-01-11T04:28:27.234Z,3.51
2023-01-11T04:31:33.562Z,3.54
2023-01-11T04:34:38.933Z,3.51
2023-01-11T04:37:45.257Z,3.48
2023-01-11T04:41:14.864Z,3.48
2023-01-11T04:44:21.152Z,3.49
2023-01-11T04:47:28.297Z,3.51
2023-01-11T04:50:34.670Z,3.56
2023-01-11T04:53:40.521Z,3.60
2023-01-11T04:56:49.504Z,3.60
2023-01-11T04:59:54.893Z,3.63
2023-01-11T05:03:02.630Z,3.65
2023-01-11T05:06:08.943Z,3.65
2023-01-11T05:09:18.832Z,3.61
2023-01-11T05:12:27.334Z,3.61
2023-01-11T05:15:33.518Z,3.60
2023-01-11T05:18:39.384Z,3.57
2023-01-11T05:21:45.854Z,3.55
2023-01-11T05:24:51.259Z,3.54
2023-01-11T05:28:00.253Z,3.54
2023-01-11T05:31:06.569Z,3.43
2023-01-11T05:34:16.656Z,3.45
2023-01-11T05:37:21.979Z,3.42
2023-01-11T05:40:28.204Z,3.36
2023-01-11T05:43:59.445Z,3.34
2023-01-11T05:47:05.760Z,3.29
2023-01-11T05:50:13.406Z,3.24
2023-01-11T05:53:19.612Z,3.26
2023-01-11T05:56:25.027Z,3.22
2023-01-11T05:59:34.032Z,3.21
2023-01-11T06:02:39.638Z,3.17
2023-01-11T06:05:46.232Z,3.16
2023-01-11T06:08:52.375Z,3.07
2023-01-11T06:11:58.647Z,3.15
2023-01-11T06:15:07.835Z,3.21
2023-01-11T06:18:14.162Z,3.20
2023-01-11T06:21:21.359Z,3.16
2023-01-11T06:24:27.820Z,3.11
2023-01-11T06:27:33.191Z,3.06
2023-01-11T06:30:43.156Z,2.99
2023-01-11T06:33:49.687Z,2.90
2023-01-11T06:36:55.894Z,2.82
2023-01-11T06:40:01.293Z,2.74
2023-01-11T06:43:08.584Z,2.66
2023-01-11T06:46:19.786Z,2.62
2023-01-11T06:49:26.064Z,2.57
2023-01-11T06:52:31.609Z,2.49
2023-01-11T06:55:37.845Z,2.43
2023-01-11T06:58:45.577Z,2.42
2023-01-11T07:01:56.359Z,2.39
2023-01-11T07:05:01.816Z,2.38
2023-01-11T07:08:26.800Z,2.39
2023-01-11T07:11:50.822Z,2.40
2023-01-11T07:15:15.260Z,2.42
2023-01-11T07:18:41.912Z,2.46
2023-01-11T07:22:06.698Z,2.48
2023-01-11T07:25:32.017Z,2.44
2023-01-11T07:28:38.605Z,2.46
2023-01-11T07:31:44.176Z,2.42
2023-01-11T07:34:53.166Z,2.34
2023-01-11T07:37:58.607Z,2.25
2023-01-11T07:41:25.396Z,2.26
2023-01-11T07:44:30.653Z,2.28
2023-01-11T07:47:37.514Z,2.28
2023-01-11T07:50:46.591Z,2.36
2023-01-11T07:53:52.851Z,2.44
2023-01-11T07:56:58.291Z,2.47
2023-01-11T08:00:04.706Z,2.50
2023-01-11T08:03:17.607Z,2.56
2023-01-11T08:06:26.759Z,2.54
2023-01-11T08:09:32.179Z,2.55
2023-01-11T08:12:54.309Z,2.58
2023-01-11T08:16:01.321Z,2.63
2023-01-11T08:19:08.192Z,2.67
2023-01-11T08:22:17.892Z,2.68
2023-01-11T08:25:25.761Z,2.67
2023-01-11T08:28:32.300Z,2.74
2023-01-11T08:31:38.589Z,2.82
2023-01-11T08:34:44.224Z,2.91
2023-01-11T08:37:53.415Z,2.98
2023-01-11T08:40:58.789Z,3.01
2023-01-11T08:44:05.138Z,3.07
2023-01-11T08:47:10.555Z,3.14
2023-01-11T08:50:17.907Z,3.23
2023-01-11T08:53:26.688Z,3.32
2023-01-11T08:56:32.967Z,3.39
2023-01-11T08:59:38.382Z,3.45
2023-01-11T09:02:45.589Z,3.46
2023-01-11T09:05:51.596Z,3.44
2023-01-11T09:09:00.938Z,3.41
2023-01-11T09:12:06.670Z,3.45
2023-01-11T09:15:14.325Z,3.46
2023-01-11T09:18:19.695Z,3.49
2023-01-11T09:21:26.723Z,3.53
2023-01-11T09:24:35.195Z,3.55
2023-01-11T09:27:41.543Z,3.52
2023-01-11T09:30:51.411Z,3.53
2023-01-11T09:33:57.899Z,3.58
2023-01-11T09:37:04.781Z,3.63
2023-01-11T09:40:23.815Z,3.66
2023-01-11T09:43:33.509Z,3.69
2023-01-11T09:46:45.287Z,3.69
2023-01-11T09:49:59.282Z,3.72
2023-01-11T09:53:10.872Z,3.67
2023-01-11T09:56:25.816Z,3.63
2023-01-11T09:59:45.008Z,3.57
2023-01-11T10:04:03.627Z,3.51
2023-01-11T10:18:30.103Z,3.40
2023-01-11T10:22:48.496Z,3.34
2023-01-11T10:26:05.061Z,3.35
2023-01-11T10:29:40.444Z,3.28
2023-01-11T10:33:06.667Z,3.36
2023-01-11T10:36:39.882Z,3.34
2023-01-11T10:40:29.375Z,3.40
2023-01-11T10:43:44.698Z,3.46
2023-01-11T10:46:59.855Z,3.48
2023-01-11T10:50:25.808Z,3.47
2023-01-11T10:53:42.551Z,3.48
2023-01-11T10:57:23.157Z,3.45
2023-01-11T11:00:42.374Z,3.43
2023-01-11T11:04:28.156Z,3.40
2023-01-11T11:07:49.985Z,3.41
2023-01-11T11:11:08.767Z,3.46
2023-01-11T11:14:27.136Z,3.49
2023-01-11T11:17:38.643Z,3.54
2023-01-11T11:20:47.118Z,3.53
2023-01-11T11:24:06.019Z,3.51
2023-01-11T11:27:28.621Z,3.53
2023-01-11T11:30:41.649Z,3.49
2023-01-11T11:33:50.051Z,3.54
2023-01-11T11:37:03.897Z,3.54
2023-01-11T11:40:30.568Z,3.60
2023-01-11T11:43:38.786Z,3.60
2023-01-11T11:46:44.582Z,3.61
2023-01-11T11:50:01.271Z,3.67
2023-01-11T11:53:10.410Z,3.71
2023-01-11T11:56:27.817Z,3.75
2023-01-11T11:59:35.196Z,3.73
2023-01-11T12:02:55.194Z,3.74
2023-01-11T12:06:05.037Z,3.79
2023-01-11T12:09:34.931Z,3.81
2023-01-11T12:12:55.974Z,3.79
2023-01-11T12:16:06.176Z,3.87
2023-01-11T12:19:32.600Z,3.96
2023-01-11T12:22:38.923Z,3.97
2023-01-11T12:26:14.036Z,3.98
2023-01-11T12:29:42.645Z,3.98
2023-01-11T12:33:43.151Z,4.00
2023-01-11T12:37:03.905Z,4.00
2023-01-11T12:40:27.007Z,4.05
2023-01-11T12:44:07.191Z,4.07
2023-01-11T12:47:58.603Z,4.12
2023-01-11T12:51:26.877Z,4.21
2023-01-11T12:55:05.966Z,4.28
2023-01-11T12:58:27.916Z,4.32
2023-01-11T13:01:55.121Z,4.34
2023-01-11T13:05:19.188Z,4.36
2023-01-11T13:08:46.333Z,4.38
2023-01-11T13:12:07.343Z,4.37
2023-01-11T13:15:42.260Z,4.40
2023-01-11T13:19:03.363Z,4.40
2023-01-11T13:22:21.360Z,4.45
2023-01-11T13:25:34.383Z,4.42
2023-01-11T13:28:47.471Z,4.39
2023-01-11T13:31:56.301Z,4.38
2023-01-11T13:35:18.337Z,4.39
2023-01-11T13:38:41.553Z,4.40
2023-01-11T13:41:56.545Z,4.37
2023-01-11T13:45:19.525Z,4.33
2023-01-11T13:48:35.438Z,4.31
2023-01-11T13:52:00.742Z,4.32
2023-01-11T13:55:24.879Z,4.28
2023-01-11T13:58:40.491Z,4.26
2023-01-11T14:01:59.720Z,4.31
2023-01-11T14:05:18.520Z,4.63
2023-01-11T14:09:12.585Z,4.85
2023-01-11T14:12:42.143Z,4.83
2023-01-11T14:16:02.344Z,4.72
2023-01-11T14:19:25.376Z,4.71
2023-01-11T14:22:44.557Z,4.64
2023-01-11T14:26:37.028Z,4.53
2023-01-11T14:30:18.031Z,4.36
2023-01-11T14:34:14.339Z,4.17
2023-01-11T14:38:08.735Z,4.00
2023-01-11T14:42:12.089Z,3.80
2023-01-11T14:45:40.059Z,3.67
2023-01-11T14:49:00.490Z,3.57
2023-01-11T14:52:15.113Z,3.51
2023-01-11T14:55:29.202Z,3.48
2023-01-11T14:58:37.377Z,3.44
2023-01-11T15:02:28.511Z,3.40
2023-01-11T15:05:42.058Z,3.35
2023-01-11T15:08:53.587Z,3.31
2023-01-11T15:12:14.778Z,3.27
2023-01-11T15:15:47.357Z,3.25
2023-01-11T15:18:50.267Z,3.19
2023-01-11T15:21:59.719Z,3.07
2023-01-11T15:25:09.745Z,2.96
2023-01-11T15:28:41.707Z,2.88
2023-01-11T15:32:17.141Z,2.81
2023-01-11T15:35:36.994Z,2.76
2023-01-11T15:38:54.342Z,2.77
2023-01-11T15:42:37.552Z,2.72
2023-01-11T15:46:43.521Z,2.63
2023-01-11T15:50:57.862Z,2.59
2023-01-11T15:54:53.256Z,2.55
2023-01-11T15:58:36.713Z,2.54
2023-01-11T16:02:17.129Z,2.56
2023-01-11T16:05:30.142Z,2.56
2023-01-11T16:08:53.529Z,2.56
2023-01-11T16:12:30.514Z,2.54
2023-01-11T16:15:57.013Z,2.56
2023-01-11T16:19:17.856Z,2.54
2023-01-11T16:22:28.905Z,2.51
2023-01-11T16:25:46.603Z,2.47
2023-01-11T16:28:57.835Z,2.43
2023-01-11T16:32:07.932Z,2.42
2023-01-11T16:35:22.499Z,2.43
2023-01-11T16:38:30.984Z,2.44
2023-01-11T16:41:51.295Z,2.41
2023-01-11T16:45:04.813Z,2.38
2023-01-11T16:48:19.095Z,2.34
2023-01-11T16:51:25.319Z,2.32
2023-01-11T16:54:36.144Z,2.31
2023-01-11T16:57:54.403Z,2.26
2023-01-11T17:01:03.373Z,2.26
2023-01-11T17:04:28.862Z,2.30
2023-01-11T17:07:34.236Z,2.33
2023-01-11T17:10:40.843Z,2.39
2023-01-11T17:14:34.706Z,2.46
2023-01-11T17:17:42.299Z,2.51
2023-01-11T17:20:47.908Z,2.57
2023-01-11T17:24:05.730Z,2.63
2023-01-11T17:27:24.092Z,2.68
2023-01-11T17:30:35.524Z,2.68
2023-01-11T17:33:41.212Z,2.70
2023-01-11T17:36:49.536Z,2.76
2023-01-11T17:39:56.704Z,2.82
2023-01-11T17:43:24.962Z,2.86
2023-01-11T17:46:33.506Z,2.92
2023-01-11T17:49:42.243Z,3.00
2023-01-11T17:52:54.678Z,3.09
2023-01-11T17:56:03.894Z,2.89
2023-01-11T17:59:23.932Z,3.17
2023-01-11T18:02:33.320Z,3.19
2023-01-11T18:05:39.159Z,3.21
2023-01-11T18:08:52.217Z,3.20
2023-01-11T18:12:12.805Z,3.12
2023-01-11T18:15:33.356Z,3.09
2023-01-11T18:18:48.843Z,3.10
2023-01-11T18:21:57.899Z,3.06
2023-01-11T18:25:17.819Z,3.02
2023-01-11T18:28:38.648Z,2.99
2023-01-11T18:31:44.950Z,2.98
2023-01-11T18:34:57.512Z,2.93
2023-01-11T18:38:02.956Z,2.82
2023-01-11T18:41:30.252Z,2.73
2023-01-11T18:44:35.700Z,2.74
2023-01-11T18:47:42.980Z,2.77
2023-01-11T18:50:54.708Z,2.77
2023-01-11T18:54:00.919Z,2.71
2023-01-11T18:57:06.816Z,2.59
2023-01-11T19:00:18.858Z,2.48
2023-01-11T19:03:24.295Z,2.48
2023-01-11T19:06:33.419Z,2.56
2023-01-11T19:09:38.822Z,2.64
2023-01-11T19:12:45.414Z,2.70
2023-01-11T19:15:51.673Z,2.73
2023-01-11T19:18:58.204Z,2.76
2023-01-11T19:22:07.080Z,2.76
2023-01-11T19:25:15.414Z,2.82
2023-01-11T19:28:20.897Z,2.87
2023-01-11T19:31:27.139Z,2.94
2023-01-11T19:34:32.544Z,2.99
2023-01-11T19:37:41.850Z,3.09
2023-01-11T19:40:50.335Z,3.21
2023-01-11T19:43:57.017Z,3.30
2023-01-11T19:47:12.522Z,3.34
2023-01-11T19:50:20.202Z,3.38
2023-01-11T19:53:28.402Z,3.42
2023-01-11T19:56:34.815Z,3.48
2023-01-11T19:59:40.218Z,3.49
2023-01-11T20:02:46.876Z,3.56
2023-01-11T20:05:52.430Z,3.56
2023-01-11T20:09:01.988Z,3.56
2023-01-11T20:12:07.804Z,3.57
2023-01-11T20:15:15.208Z,3.55
2023-01-11T20:18:21.099Z,3.52
2023-01-11T20:21:34.291Z,3.52
2023-01-11T20:24:42.918Z,3.57
2023-01-11T20:27:49.436Z,3.61
2023-01-11T20:30:56.374Z,3.63
2023-01-11T20:34:05.310Z,3.64
2023-01-11T20:37:11.050Z,3.64
2023-01-11T20:40:21.044Z,3.67
2023-01-11T20:43:27.496Z,3.72
2023-01-11T20:46:34.985Z,3.69
2023-01-11T20:49:41.408Z,3.64
2023-01-11T20:52:48.204Z,3.54
2023-01-11T20:55:57.124Z,3.57
2023-01-11T20:59:04.501Z,3.64
2023-01-11T21:02:11.001Z,3.66
2023-01-11T21:05:17.835Z,3.64
2023-01-11T21:08:23.769Z,3.70
2023-01-11T21:11:34.613Z,3.73
2023-01-11T21:14:40.334Z,3.77
2023-01-11T21:17:47.160Z,3.79
2023-01-11T21:20:53.763Z,3.55
2023-01-11T21:24:02.581Z,3.68
2023-01-11T21:27:11.563Z,3.60
2023-01-11T21:30:18.751Z,3.45
2023-01-11T21:33:24.275Z,3.49
2023-01-11T21:36:34.495Z,3.41
2023-01-11T21:39:39.883Z,3.36
2023-01-11T21:42:49.010Z,3.36
2023-01-11T21:45:58.546Z,3.27
2023-01-11T21:49:04.888Z,3.24
2023-01-11T21:52:11.923Z,3.28
2023-01-11T21:55:18.298Z,3.30
2023-01-11T21:58:26.425Z,3.22
2023-01-11T22:01:32.929Z,3.35
2023-01-11T22:04:39.202Z,3.48
2023-01-11T22:07:45.455Z,3.49
2023-01-11T22:11:00.322Z,3.56
2023-01-11T22:14:09.737Z,3.52
2023-01-11T22:17:15.409Z,3.41
2023-01-11T22:20:21.837Z,3.43
2023-01-11T22:23:27.836Z,3.34
2023-01-11T22:26:38.872Z,3.26
2023-01-11T22:29:48.222Z,3.30
2023-01-11T22:32:54.663Z,3.20
2023-01-11T22:36:00.159Z,3.07
2023-01-11T22:39:06.995Z,3.14
2023-01-11T22:42:12.879Z,3.07
2023-01-11T22:45:22.060Z,2.92
2023-01-11T22:48:27.867Z,2.85
2023-01-11T22:51:34.141Z,2.74
2023-01-11T22:54:39.529Z,2.64
2023-01-11T22:57:45.856Z,2.61
2023-01-11T23:00:53.987Z,2.56
2023-01-11T23:04:02.354Z,2.56
2023-01-11T23:07:07.999Z,2.47
2023-01-11T23:10:15.131Z,2.45
2023-01-11T23:13:36.558Z,2.28
2023-01-11T23:16:47.834Z,2.24
2023-01-11T23:19:53.256Z,2.27
2023-01-11T23:22:59.536Z,2.31
2023-01-11T23:26:04.901Z,2.35
2023-01-11T23:29:11.607Z,2.36
2023-01-11T23:32:20.065Z,2.38
2023-01-11T23:35:26.461Z,2.34
2023-01-11T23:38:35.698Z,2.36
2023-01-11T23:41:58.065Z,2.31
2023-01-11T23:45:03.406Z,2.29
2023-01-11T23:48:09.701Z,2.28
2023-01-11T23:51:15.054Z,2.24
2023-01-11T23:54:21.375Z,2.30
2023-01-11T23:57:29.334Z,2.25
